Time;durP1;ratioP1;P1;durP2;ratioP2;P2;SDS_P1;SDS_P2;PMS_P1;PMS_P2;Temp;Humidity;BMP_temperature;BMP_pressure;BME280_temperature;BME280_humidity;BME280_pressure;Samples;Min_cycle;Max_cycle;Signal;HPM_P1;HPM_P2
2021/03/28 00:00:07;;;;;;;8.37;3.30;;;8.80;1.00;;;;;;5072582;28;20587;-78
2021/03/28 00:02:50;;;;;;;9.50;3.30;;;8.90;1.00;;;;;;5072688;28;20255;-78
2021/03/28 00:05:26;;;;;;;8.87;3.37;;;8.90;1.00;;;;;;5072571;28;20196;-77
2021/03/28 00:07:59;;;;;;;10.77;3.23;;;8.80;1.00;;;;;;5054593;28;20575;-79
2021/03/28 00:10:39;;;;;;;12.57;3.17;;;8.90;1.00;;;;;;5072397;28;20210;-78
2021/03/28 00:13:23;;;;;;;7.67;3.13;;;8.80;1.00;;;;;;5072110;28;20235;-78
2021/03/28 00:15:57;;;;;;;10.60;3.27;;;8.80;43.60;;;;;;5072474;28;20518;-83
2021/03/28 00:18:31;;;;;;;10.97;3.37;;;8.80;1.00;;;;;;5072981;28;20180;-81
2021/03/28 00:21:18;;;;;;;8.63;3.33;;;8.70;99.90;;;;;;5072305;28;20648;-78
2021/03/28 00:23:57;;;;;;;13.20;3.67;;;8.60;99.90;;;;;;5075491;28;20176;-81
2021/03/28 00:26:39;;;;;;;9.93;3.17;;;8.60;99.90;;;;;;5076013;28;20180;-78
2021/03/28 00:29:14;;;;;;;10.90;3.43;;;8.60;99.90;;;;;;5076525;28;20172;-85
2021/03/28 00:32:05;;;;;;;12.73;3.37;;;8.60;99.90;;;;;;5076021;28;20204;-80
2021/03/28 00:34:32;;;;;;;11.23;3.50;;;8.80;99.90;;;;;;5076246;28;20176;-82
2021/03/28 00:37:14;;;;;;;13.37;3.43;;;8.50;99.90;;;;;;5076160;28;20566;-83
2021/03/28 00:40:01;;;;;;;9.37;3.13;;;8.50;99.90;;;;;;5076270;28;20176;-82
2021/03/28 00:42:42;;;;;;;12.87;3.17;;;8.60;99.90;;;;;;5075490;28;20192;-82
2021/03/28 00:45:20;;;;;;;7.13;3.20;;;8.60;99.90;;;;;;5076127;28;20194;-78
2021/03/28 00:48:06;;;;;;;11.67;3.57;;;8.70;99.90;;;;;;5075914;28;20180;-78
2021/03/28 00:50:40;;;;;;;10.13;4.20;;;8.70;99.90;;;;;;5075634;28;20184;-85
2021/03/28 00:53:08;;;;;;;8.97;3.80;;;8.60;54.10;;;;;;5075674;28;20291;-81
2021/03/28 00:55:54;;;;;;;8.57;3.83;;;8.60;11.50;;;;;;5057789;28;20164;-79
2021/03/28 00:58:25;;;;;;;12.23;4.20;;;8.60;1.00;;;;;;5075993;28;20160;-81
2021/03/28 01:01:01;;;;;;;13.07;4.50;;;8.60;1.00;;;;;;5075909;28;20168;-78
2021/03/28 01:04:06;;;;;;;9.97;4.03;;;8.60;1.00;;;;;;5075886;28;20168;-79
2021/03/28 01:06:53;;;;;;;11.27;4.10;;;8.60;1.00;;;;;;5075780;28;20250;-79
2021/03/28 01:09:56;;;;;;;8.43;3.90;;;8.50;1.00;;;;;;5075667;28;20200;-83
2021/03/28 01:12:59;;;;;;;10.63;3.93;;;8.40;1.00;;;;;;5057228;28;20265;-79
2021/03/28 01:15:45;;;;;;;11.27;3.47;;;8.40;1.00;;;;;;5076005;28;20176;-80
2021/03/28 01:18:20;;;;;;;9.50;3.90;;;8.40;1.00;;;;;;5075538;28;20212;-80
2021/03/28 01:20:53;;;;;;;12.47;3.40;;;8.40;1.00;;;;;;5075942;28;20647;-77
2021/03/28 01:23:40;;;;;;;8.77;3.30;;;8.40;1.00;;;;;;5075555;28;20168;-81
2021/03/28 01:26:47;;;;;;;6.03;3.07;;;8.40;34.50;;;;;;5075394;28;20206;-81
2021/03/28 01:29:28;;;;;;;8.90;3.60;;;8.40;99.90;;;;;;5075702;28;20171;-80
2021/03/28 01:32:04;;;;;;;8.97;3.40;;;8.30;99.90;;;;;;5075400;28;20184;-82
2021/03/28 01:34:54;;;;;;;11.90;3.60;;;8.30;99.90;;;;;;5074441;28;20166;-78
2021/03/28 01:37:44;;;;;;;8.10;3.03;;;8.40;99.90;;;;;;5057324;28;20592;-80
2021/03/28 01:40:37;;;;;;;10.60;4.27;;;8.50;99.90;;;;;;5074503;28;20200;-78
2021/03/28 01:43:14;;;;;;;7.53;2.90;;;8.60;56.70;;;;;;5074963;28;20318;-77
2021/03/28 01:45:52;;;;;;;7.50;3.10;;;8.60;99.90;;;;;;5075724;28;20164;-77
2021/03/28 01:48:31;;;;;;;6.87;3.13;;;8.60;99.90;;;;;;5056930;28;20180;-80
2021/03/28 01:51:35;;;;;;;7.63;3.10;;;8.60;99.90;;;;;;5075185;28;20195;-78
2021/03/28 01:54:10;;;;;;;9.60;2.83;;;8.60;99.90;;;;;;5070268;28;20196;-78
2021/03/28 01:56:51;;;;;;;8.83;3.20;;;8.60;99.90;;;;;;5075040;28;20182;-77
2021/03/28 02:00:06;;;;;;;8.83;3.77;;;8.70;99.90;;;;;;5074933;28;20160;-78
2021/03/28 02:03:09;;;;;;;9.23;3.30;;;8.70;99.90;;;;;;5056833;28;20196;-78
2021/03/28 02:05:49;;;;;;;6.03;2.60;;;8.80;99.90;;;;;;5075014;28;20164;-84
2021/03/28 02:08:28;;;;;;;6.37;3.00;;;8.80;99.90;;;;;;5074617;28;20195;-78
2021/03/28 02:11:27;;;;;;;9.63;3.10;;;8.90;99.90;;;;;;5074957;28;20411;-77
2021/03/28 02:14:31;;;;;;;9.33;3.03;;;8.90;99.90;;;;;;5074621;28;20175;-81
2021/03/28 02:17:12;;;;;;;9.13;3.17;;;9.00;99.90;;;;;;5026495;28;20270;-79
2021/03/28 02:20:12;;;;;;;8.43;3.00;;;9.00;99.90;;;;;;5074435;28;20164;-78
2021/03/28 02:22:48;;;;;;;7.40;2.97;;;8.90;99.90;;;;;;5074346;28;20233;-79
2021/03/28 02:25:48;;;;;;;11.90;3.53;;;9.00;99.90;;;;;;5074531;28;20255;-79
2021/03/28 02:28:30;;;;;;;8.13;3.13;;;9.10;99.90;;;;;;5060702;28;20196;-83
2021/03/28 02:31:20;;;;;;;12.10;2.87;;;9.10;99.90;;;;;;5056491;28;20172;-83
2021/03/28 02:34:04;;;;;;;8.10;3.40;;;9.10;98.70;;;;;;5074428;28;20259;-83
2021/03/28 02:36:59;;;;;;;8.17;2.67;;;9.10;96.20;;;;;;5074200;28;20188;-82
2021/03/28 02:39:38;;;;;;;8.50;2.80;;;9.10;88.10;;;;;;5073977;28;20248;-81
2021/03/28 02:42:21;;;;;;;10.23;3.23;;;9.10;96.20;;;;;;5074359;28;20187;-78
2021/03/28 02:44:59;;;;;;;8.07;2.60;;;9.10;99.90;;;;;;5074008;28;20160;-81
2021/03/28 02:48:04;;;;;;;10.40;2.57;;;9.10;99.90;;;;;;5056085;28;20176;-83
2021/03/28 02:50:47;;;;;;;8.23;3.30;;;9.10;99.90;;;;;;5055810;28;20178;-78
2021/03/28 02:54:20;;;;;;;8.97;2.60;;;9.10;99.90;;;;;;5073807;28;20880;-78
2021/03/28 02:56:56;;;;;;;7.23;2.90;;;9.20;35.70;;;;;;4964596;28;20184;-77
2021/03/28 02:59:35;;;;;;;8.87;2.80;;;9.20;1.00;;;;;;4973123;28;20198;-79
2021/03/28 03:02:33;;;;;;;8.93;3.00;;;9.20;25.20;;;;;;5056001;28;20191;-79
2021/03/28 03:05:39;;;;;;;7.43;3.30;;;9.10;99.90;;;;;;5068440;28;20546;-78
2021/03/28 03:08:20;;;;;;;10.73;3.20;;;9.10;99.90;;;;;;4972883;28;20659;-77
2021/03/28 03:11:11;;;;;;;6.83;3.40;;;9.10;99.90;;;;;;5066626;28;20651;-84
2021/03/28 03:14:08;;;;;;;10.73;3.53;;;9.10;99.90;;;;;;5073603;28;20551;-81
2021/03/28 03:16:59;;;;;;;10.70;3.67;;;9.20;99.90;;;;;;5074359;28;20190;-77
2021/03/28 03:19:44;;;;;;;10.20;4.40;;;9.20;99.90;;;;;;5025087;28;20188;-78
2021/03/28 03:22:30;;;;;;;9.63;3.67;;;9.20;99.90;;;;;;5073415;28;20165;-81
2021/03/28 03:25:33;;;;;;;9.30;3.30;;;9.20;99.90;;;;;;5073249;28;20179;-80
2021/03/28 03:28:12;;;;;;;8.40;3.80;;;9.20;99.90;;;;;;5073158;28;20233;-82
2021/03/28 03:31:05;;;;;;;8.47;3.57;;;9.20;99.90;;;;;;5055048;28;20577;-79
2021/03/28 03:34:14;;;;;;;8.70;3.77;;;9.20;99.90;;;;;;5073291;28;20204;-78
2021/03/28 03:36:54;;;;;;;7.43;2.63;;;9.30;99.90;;;;;;5073069;28;20172;-81
2021/03/28 03:39:50;;;;;;;7.03;3.20;;;9.30;99.90;;;;;;5073081;28;20178;-81
2021/03/28 03:42:58;;;;;;;7.97;3.30;;;9.30;99.90;;;;;;5073289;28;20321;-77
2021/03/28 03:46:03;;;;;;;7.83;3.10;;;9.40;92.90;;;;;;5026363;28;20697;-78
2021/03/28 03:48:49;;;;;;;6.87;2.90;;;9.40;98.90;;;;;;5073328;28;20214;-78
2021/03/28 03:51:38;;;;;;;7.93;3.00;;;9.30;99.90;;;;;;5072774;28;20172;-77
2021/03/28 03:54:07;;;;;;;8.00;3.67;;;9.30;99.90;;;;;;5073033;28;20195;-81
2021/03/28 03:57:03;;;;;;;13.43;3.50;;;9.40;99.90;;;;;;5072694;28;20659;-78
2021/03/28 03:59:59;;;;;;;8.93;3.50;;;9.40;99.90;;;;;;5073059;28;20164;-77
2021/03/28 04:02:49;;;;;;;9.93;3.93;;;9.40;99.90;;;;;;5072954;28;20233;-77
2021/03/28 04:05:33;;;;;;;11.53;3.50;;;9.40;57.10;;;;;;5054737;28;20245;-78
2021/03/28 04:08:36;;;;;;;11.80;4.30;;;9.40;45.20;;;;;;5072929;28;20164;-78
2021/03/28 04:11:35;;;;;;;6.00;3.37;;;9.50;1.00;;;;;;5072896;28;20163;-80
2021/03/28 04:14:45;;;;;;;10.17;3.53;;;9.60;1.00;;;;;;5054824;28;20640;-81
2021/03/28 04:17:13;;;;;;;8.40;3.27;;;9.50;1.00;;;;;;5072559;28;20235;-77
2021/03/28 04:19:47;;;;;;;8.13;4.07;;;9.50;1.00;;;;;;5072586;28;20222;-80
2021/03/28 04:22:32;;;;;;;7.63;3.40;;;9.50;1.00;;;;;;5054747;28;20179;-77
2021/03/28 04:25:23;;;;;;;8.00;4.03;;;9.50;1.00;;;;;;5072917;28;20164;-80
2021/03/28 04:28:09;;;;;;;9.90;3.83;;;9.60;1.00;;;;;;5072430;28;20184;-77
2021/03/28 04:30:46;;;;;;;9.40;3.60;;;9.50;63.40;;;;;;5072418;28;20173;-77
2021/03/28 04:33:40;;;;;;;6.80;3.30;;;9.50;99.90;;;;;;5054324;28;20257;-81
2021/03/28 04:36:21;;;;;;;10.90;4.07;;;9.50;79.70;;;;;;5072560;28;20196;-78
2021/03/28 04:39:15;;;;;;;8.43;4.23;;;9.60;37.90;;;;;;5072863;28;20226;-80
2021/03/28 04:42:00;;;;;;;14.43;4.43;;;9.60;28.40;;;;;;5061347;28;20176;-78
2021/03/28 04:44:33;;;;;;;10.60;4.37;;;9.60;12.00;;;;;;5072590;28;20204;-76
2021/03/28 04:46:58;;;;;;;12.07;4.57;;;9.50;99.90;;;;;;5055076;28;20636;-77
2021/03/28 04:49:36;;;;;;;11.13;4.37;;;9.50;99.90;;;;;;5074638;28;20175;-77
2021/03/28 04:52:23;;;;;;;12.40;4.60;;;9.40;99.90;;;;;;5072705;28;20227;-77
2021/03/28 04:55:10;;;;;;;7.87;4.17;;;9.40;99.90;;;;;;5072550;28;20164;-78
2021/03/28 04:57:56;;;;;;;10.63;4.37;;;9.50;99.90;;;;;;5072582;28;20636;-78
2021/03/28 05:00:53;;;;;;;14.27;4.57;;;9.40;99.90;;;;;;5072487;28;20168;-77
2021/03/28 05:03:37;;;;;;;16.03;4.97;;;9.40;99.90;;;;;;5071967;28;20195;-77
2021/03/28 05:06:25;;;;;;;12.10;4.40;;;9.50;99.90;;;;;;5072880;28;20172;-77
2021/03/28 05:08:55;;;;;;;7.60;4.00;;;9.50;99.90;;;;;;5073941;28;20180;-77
2021/03/28 05:11:46;;;;;;;12.33;4.80;;;9.40;99.90;;;;;;5075511;28;20168;-79
2021/03/28 05:14:49;;;;;;;11.93;5.23;;;9.40;99.90;;;;;;5031233;28;20180;-79
2021/03/28 05:18:01;;;;;;;12.17;4.80;;;9.50;99.90;;;;;;5057476;28;20713;-77
2021/03/28 05:20:53;;;;;;;9.43;4.40;;;9.50;99.90;;;;;;5075993;28;20238;-79
2021/03/28 05:23:32;;;;;;;10.73;4.30;;;9.40;99.90;;;;;;5078156;28;20171;-77
2021/03/28 05:26:18;;;;;;;11.10;4.60;;;9.40;1.00;;;;;;5078311;28;20545;-79
2021/03/28 05:29:03;;;;;;;10.90;5.00;;;9.40;1.00;;;;;;5077878;28;20176;-80
2021/03/28 05:32:05;;;;;;;13.17;4.63;;;9.30;1.00;;;;;;5074987;28;20644;-82
2021/03/28 05:35:00;;;;;;;12.53;4.40;;;9.30;1.00;;;;;;5075432;28;20247;-76
2021/03/28 05:37:40;;;;;;;13.00;5.13;;;9.30;1.00;;;;;;5075210;28;20179;-84
2021/03/28 05:40:17;;;;;;;12.83;4.83;;;9.30;1.00;;;;;;5057477;28;20641;-79
2021/03/28 05:42:45;;;;;;;8.13;4.60;;;9.30;1.00;;;;;;5075223;28;20390;-78
2021/03/28 05:45:36;;;;;;;13.33;4.30;;;9.30;1.00;;;;;;5075072;28;20165;-79
2021/03/28 05:48:19;;;;;;;13.37;5.57;;;9.30;1.00;;;;;;5074973;28;20168;-77
2021/03/28 05:51:20;;;;;;;10.53;4.17;;;9.20;1.00;;;;;;5057354;28;20644;-77
2021/03/28 05:54:16;;;;;;;10.83;4.60;;;9.20;1.00;;;;;;5069975;28;20196;-81
2021/03/28 05:57:18;;;;;;;10.50;4.17;;;9.20;1.00;;;;;;5075366;28;20222;-78
2021/03/28 06:00:11;;;;;;;13.97;4.83;;;9.20;1.00;;;;;;5056823;28;20568;-80
2021/03/28 06:02:52;;;;;;;10.67;4.63;;;9.30;1.00;;;;;;5074808;28;20183;-77
2021/03/28 06:05:21;;;;;;;10.47;4.33;;;9.30;1.00;;;;;;5056950;28;20177;-77
2021/03/28 06:08:17;;;;;;;12.87;5.47;;;9.30;1.00;;;;;;5056852;28;20241;-79
2021/03/28 06:11:13;;;;;;;11.90;4.97;;;9.30;1.00;;;;;;5074872;28;20169;-77
2021/03/28 06:13:59;;;;;;;10.20;5.03;;;9.50;1.00;;;;;;5074146;28;20279;-78
2021/03/28 06:16:46;;;;;;;10.17;4.50;;;9.50;1.00;;;;;;5074708;28;20192;-78
2021/03/28 06:19:33;;;;;;;11.57;4.90;;;9.40;1.00;;;;;;5056759;28;20180;-80
2021/03/28 06:22:17;;;;;;;16.00;5.17;;;9.40;1.00;;;;;;5060422;28;20172;-79
2021/03/28 06:25:15;;;;;;;9.47;4.37;;;9.40;1.00;;;;;;5074670;28;20218;-83
2021/03/28 06:27:57;;;;;;;8.40;4.00;;;9.40;1.00;;;;;;5042793;28;20238;-80
2021/03/28 06:31:00;;;;;;;10.57;4.43;;;9.60;1.00;;;;;;5074733;28;20172;-84
2021/03/28 06:33:46;;;;;;;14.77;4.40;;;9.50;1.00;;;;;;5074273;28;20200;-84
2021/03/28 06:36:31;;;;;;;14.43;4.73;;;9.50;1.00;;;;;;5056525;28;20164;-84
2021/03/28 06:39:29;;;;;;;9.60;4.03;;;9.60;1.00;;;;;;5074143;28;20290;-79
2021/03/28 06:42:29;;;;;;;12.37;4.50;;;9.60;1.00;;;;;;5056339;28;20218;-82
2021/03/28 06:45:16;;;;;;;15.20;5.50;;;9.70;1.00;;;;;;5055852;28;20180;-84
2021/03/28 06:48:18;;;;;;;10.67;4.47;;;9.70;1.00;;;;;;5073994;28;20701;-77
2021/03/28 06:51:22;;;;;;;12.23;4.57;;;9.70;1.00;;;;;;5073956;28;20250;-83
2021/03/28 06:54:23;;;;;;;11.37;3.97;;;9.70;1.00;;;;;;5073929;28;20617;-77
2021/03/28 06:56:48;;;;;;;11.70;4.67;;;9.70;1.00;;;;;;5035520;28;20179;-80
2021/03/28 06:59:25;;;;;;;10.77;4.37;;;9.80;1.00;;;;;;5073290;28;20633;-81
2021/03/28 07:02:11;;;;;;;9.30;4.50;;;9.80;99.90;;;;;;5055532;28;20213;-79
2021/03/28 07:04:55;;;;;;;11.27;5.33;;;9.80;1.00;;;;;;5073186;28;20668;-82
2021/03/28 07:07:36;;;;;;;11.63;4.90;;;9.90;99.90;;;;;;5073588;28;20291;-83
2021/03/28 07:10:20;;;;;;;12.03;4.90;;;10.00;99.90;;;;;;5055916;28;20172;-81
2021/03/28 07:12:55;;;;;;;11.40;5.30;;;10.00;99.90;;;;;;5073225;28;20203;-79
2021/03/28 07:15:39;;;;;;;10.37;4.77;;;10.10;99.90;;;;;;5073626;28;20534;-80
2021/03/28 07:18:35;;;;;;;13.83;4.97;;;10.00;99.90;;;;;;5073646;28;20226;-80
2021/03/28 07:21:12;;;;;;;11.67;4.53;;;10.00;99.90;;;;;;5073398;28;20165;-83
2021/03/28 07:23:48;;;;;;;11.80;4.77;;;10.00;99.90;;;;;;5073355;28;20612;-78
2021/03/28 07:26:38;;;;;;;12.57;5.20;;;9.90;99.90;;;;;;5073014;28;20198;-77
2021/03/28 07:29:23;;;;;;;12.30;4.70;;;10.00;99.90;;;;;;5073257;28;20164;-81
2021/03/28 07:32:13;;;;;;;11.33;5.47;;;10.10;99.90;;;;;;5054403;28;20270;-81
2021/03/28 07:35:07;;;;;;;12.83;4.70;;;10.10;99.90;;;;;;5073080;28;20172;-79
2021/03/28 07:37:52;;;;;;;13.60;4.33;;;10.10;99.90;;;;;;5054945;28;20226;-81
2021/03/28 07:40:20;;;;;;;12.93;4.57;;;10.20;99.90;;;;;;5073054;28;20255;-79
2021/03/28 07:43:23;;;;;;;11.10;4.00;;;10.30;99.90;;;;;;5072522;28;20187;-78
2021/03/28 07:46:20;;;;;;;15.10;5.33;;;10.40;1.00;;;;;;5072933;28;20229;-79
2021/03/28 07:49:23;;;;;;;10.87;3.93;;;10.50;94.20;;;;;;5073257;28;20182;-83
2021/03/28 07:52:22;;;;;;;9.80;4.90;;;10.40;1.00;;;;;;5054786;28;20204;-80
2021/03/28 07:55:18;;;;;;;13.67;3.93;;;10.50;1.00;;;;;;5059362;28;20652;-81
2021/03/28 07:58:22;;;;;;;12.03;3.60;;;10.40;92.70;;;;;;5072753;28;20275;-80
2021/03/28 08:00:56;;;;;;;8.87;3.10;;;10.60;64.00;;;;;;5072585;28;20636;-79
2021/03/28 08:04:02;;;;;;;10.60;4.00;;;10.60;99.90;;;;;;5072569;28;20171;-82
2021/03/28 08:06:40;;;;;;;10.70;3.30;;;10.80;99.90;;;;;;5054824;28;20168;-82
2021/03/28 08:09:34;;;;;;;10.53;3.37;;;10.90;99.90;;;;;;5072758;28;20502;-82
2021/03/28 08:12:37;;;;;;;11.00;3.63;;;11.00;99.90;;;;;;5072425;28;20200;-81
2021/03/28 08:15:26;;;;;;;15.43;3.37;;;11.00;7.60;;;;;;5072522;28;20164;-82
2021/03/28 08:18:19;;;;;;;11.87;3.47;;;11.10;99.90;;;;;;5072722;28;20172;-81
2021/03/28 08:21:03;;;;;;;14.77;3.77;;;11.20;99.90;;;;;;5021398;28;20275;-78
2021/03/28 08:23:50;;;;;;;6.53;3.20;;;11.30;1.00;;;;;;5072444;28;20164;-79
2021/03/28 08:26:40;;;;;;;11.00;3.00;;;11.40;99.90;;;;;;5054064;28;20236;-82
2021/03/28 08:29:25;;;;;;;8.17;3.03;;;11.50;1.00;;;;;;5072366;28;20251;-78
2021/03/28 08:32:20;;;;;;;7.37;2.80;;;11.70;1.00;;;;;;5072073;28;20204;-78
2021/03/28 08:35:10;;;;;;;6.00;2.50;;;11.80;99.90;;;;;;5071521;28;20266;-83
2021/03/28 08:38:19;;;;;;;8.23;2.97;;;11.70;99.90;;;;;;5072276;28;20184;-81
2021/03/28 08:41:21;;;;;;;8.37;2.33;;;11.70;99.90;;;;;;5018717;28;20192;-82
2021/03/28 08:44:05;;;;;;;6.63;1.93;;;11.50;99.90;;;;;;5073207;28;20192;-79
2021/03/28 08:46:52;;;;;;;9.23;2.43;;;11.50;99.90;;;;;;5058058;28;20176;-79
2021/03/28 08:49:39;;;;;;;6.10;2.10;;;11.40;99.90;;;;;;5057890;28;20176;-80
2021/03/28 08:52:10;;;;;;;10.23;3.10;;;11.50;99.90;;;;;;5075607;28;20717;-78
2021/03/28 08:55:02;;;;;;;7.33;2.50;;;11.50;99.90;;;;;;5075481;28;20164;-85
2021/03/28 08:57:57;;;;;;;8.27;2.40;;;11.70;99.90;;;;;;5057888;28;20202;-82
2021/03/28 09:00:41;;;;;;;7.33;2.13;;;11.80;99.90;;;;;;5075662;28;20160;-78
2021/03/28 09:03:18;;;;;;;7.17;2.70;;;11.80;99.90;;;;;;5075528;28;20180;-78
2021/03/28 09:05:49;;;;;;;9.23;2.53;;;11.90;99.90;;;;;;5057670;28;20172;-79
2021/03/28 09:08:54;;;;;;;9.43;2.67;;;12.10;99.90;;;;;;5075657;28;20168;-82
2021/03/28 09:11:46;;;;;;;9.23;2.80;;;12.20;99.90;;;;;;5075548;28;20722;-79
2021/03/28 09:14:37;;;;;;;8.17;2.27;;;12.30;99.90;;;;;;5075410;28;20184;-84
2021/03/28 09:17:40;;;;;;;8.33;2.47;;;12.20;20.60;;;;;;5075379;28;20234;-82
2021/03/28 09:20:24;;;;;;;12.37;2.90;;;12.30;70.20;;;;;;5075280;28;20176;-78
2021/03/28 09:23:33;;;;;;;8.93;2.80;;;12.20;27.50;;;;;;5056554;28;20172;-77
2021/03/28 09:26:01;;;;;;;6.97;2.13;;;12.30;1.00;;;;;;5075146;28;20156;-78
2021/03/28 09:28:48;;;;;;;7.43;2.17;;;12.20;1.00;;;;;;5074931;28;20229;-77
2021/03/28 09:31:56;;;;;;;10.60;1.77;;;12.20;1.00;;;;;;5074714;28;20204;-79
2021/03/28 09:34:45;;;;;;;7.47;2.50;;;12.30;1.00;;;;;;5057214;28;20184;-79
2021/03/28 09:37:50;;;;;;;7.60;2.13;;;12.20;1.00;;;;;;5056707;28;20184;-80
2021/03/28 09:40:44;;;;;;;7.23;2.20;;;12.30;1.00;;;;;;5056971;28;20218;-80
2021/03/28 09:43:30;;;;;;;6.57;1.87;;;12.60;1.00;;;;;;5074641;28;20215;-78
2021/03/28 09:46:41;;;;;;;9.57;1.90;;;12.70;1.00;;;;;;5058489;28;20226;-79
2021/03/28 09:49:33;;;;;;;7.13;1.90;;;12.70;1.00;;;;;;5074712;28;20202;-79
2021/03/28 09:52:28;;;;;;;8.43;2.50;;;12.70;1.00;;;;;;5056751;28;20208;-84
2021/03/28 09:55:13;;;;;;;7.87;2.20;;;12.80;1.00;;;;;;5074028;28;20591;-78
2021/03/28 09:57:54;;;;;;;7.40;2.30;;;12.90;1.00;;;;;;5074588;28;20168;-79
2021/03/28 10:00:41;;;;;;;7.23;2.10;;;12.70;1.00;;;;;;5074633;28;20176;-79
2021/03/28 10:03:12;;;;;;;7.17;2.70;;;12.50;1.00;;;;;;5073319;28;20628;-79
2021/03/28 10:05:39;;;;;;;7.70;2.07;;;12.50;1.00;;;;;;5073571;28;20201;-79
2021/03/28 10:08:05;;;;;;;7.83;2.03;;;12.50;1.00;;;;;;5073203;28;20161;-80
2021/03/28 10:10:39;;;;;;;7.30;2.00;;;12.70;1.00;;;;;;5074421;28;20168;-78
2021/03/28 10:13:24;;;;;;;8.83;2.20;;;12.50;1.00;;;;;;5074437;28;20226;-77
2021/03/28 10:15:53;;;;;;;8.60;2.60;;;12.50;1.00;;;;;;5074751;28;20628;-77
2021/03/28 10:18:51;;;;;;;5.63;1.77;;;12.80;1.00;;;;;;5056226;28;20236;-82
2021/03/28 10:21:26;;;;;;;8.37;2.50;;;13.00;1.00;;;;;;5073967;28;20172;-78
2021/03/28 10:24:39;;;;;;;5.93;1.80;;;13.20;1.00;;;;;;5056072;28;20188;-81
2021/03/28 10:27:46;;;;;;;7.63;2.13;;;13.20;1.00;;;;;;4997598;28;20655;-79
2021/03/28 10:30:30;;;;;;;8.33;3.07;;;13.20;1.00;;;;;;5073396;28;20271;-81
2021/03/28 10:33:08;;;;;;;7.47;2.30;;;13.40;1.00;;;;;;5056820;28;20208;-78
2021/03/28 10:36:10;;;;;;;8.10;2.50;;;13.60;1.00;;;;;;5075094;28;20164;-82
2021/03/28 10:39:02;;;;;;;5.23;2.27;;;13.30;1.00;;;;;;5073701;28;20522;-81
2021/03/28 10:41:50;;;;;;;7.93;2.03;;;13.30;1.00;;;;;;5055812;28;20216;-81
2021/03/28 10:44:52;;;;;;;9.97;2.10;;;13.30;1.00;;;;;;5073645;28;20191;-85
2021/03/28 10:47:33;;;;;;;6.70;1.90;;;13.20;1.00;;;;;;5073291;28;20166;-82
2021/03/28 10:50:36;;;;;;;5.67;2.20;;;13.00;1.00;;;;;;5055437;28;20591;-84
2021/03/28 10:53:27;;;;;;;9.70;2.63;;;13.10;1.00;;;;;;5055602;28;20267;-85
2021/03/28 10:56:29;;;;;;;6.33;2.23;;;13.20;1.00;;;;;;5073780;28;20198;-81
2021/03/28 10:59:40;;;;;;;7.07;2.07;;;13.10;1.00;;;;;;5073008;28;20178;-82
2021/03/28 11:02:12;;;;;;;6.07;2.17;;;13.10;1.00;;;;;;5059868;28;20196;-84
2021/03/28 11:05:08;;;;;;;6.40;2.20;;;13.20;1.00;;;;;;5073059;28;20160;-79
2021/03/28 11:08:06;;;;;;;5.17;1.83;;;13.20;1.00;;;;;;5073328;28;20578;-85
2021/03/28 11:11:13;;;;;;;9.63;2.13;;;13.00;1.00;;;;;;5055277;28;20184;-83
2021/03/28 11:13:59;;;;;;;8.57;2.00;;;13.30;1.00;;;;;;4972213;28;20210;-82
2021/03/28 11:16:57;;;;;;;6.47;2.07;;;13.30;1.00;;;;;;5066172;28;20187;-82
2021/03/28 11:19:47;;;;;;;8.03;1.90;;;13.70;1.00;;;;;;5072596;28;20183;-84
2021/03/28 11:22:23;;;;;;;8.23;2.30;;;13.80;1.00;;;;;;5072857;28;20255;-85
2021/03/28 11:25:21;;;;;;;10.50;2.37;;;13.80;1.00;;;;;;5073093;28;20168;-80
2021/03/28 11:27:53;;;;;;;6.70;2.37;;;13.80;1.00;;;;;;5054899;28;20282;-82
2021/03/28 11:30:34;;;;;;;8.87;3.10;;;13.80;1.00;;;;;;5055182;28;20274;-84
2021/03/28 11:33:09;;;;;;;8.03;2.33;;;13.90;1.00;;;;;;5072474;28;20214;-81
2021/03/28 11:36:03;;;;;;;10.10;2.27;;;13.90;1.00;;;;;;5072625;28;20258;-84
2021/03/28 11:38:40;;;;;;;6.03;2.13;;;13.80;1.00;;;;;;5072496;28;20207;-81
2021/03/28 11:41:11;;;;;;;7.47;2.17;;;13.80;1.00;;;;;;5054946;28;20225;-84
2021/03/28 11:43:41;;;;;;;7.20;2.23;;;13.90;1.00;;;;;;5072651;28;20215;-85
2021/03/28 11:46:10;;;;;;;6.97;2.40;;;13.80;1.00;;;;;;5072535;28;20172;-82
2021/03/28 11:48:38;;;;;;;7.57;2.27;;;13.80;1.00;;;;;;5072139;28;20278;-85
2021/03/28 11:51:19;;;;;;;7.47;2.40;;;14.10;1.00;;;;;;5054775;28;20484;-86
2021/03/28 11:54:08;;;;;;;8.03;2.60;;;14.00;1.00;;;;;;5072767;28;20212;-86
2021/03/28 11:56:57;;;;;;;9.57;2.90;;;14.00;1.00;;;;;;5072824;28;20188;-86
2021/03/28 11:59:23;;;;;;;11.27;2.60;;;13.80;1.00;;;;;;5072843;28;20258;-85
2021/03/28 12:02:02;;;;;;;6.97;2.67;;;13.80;1.00;;;;;;5054537;28;20655;-84
2021/03/28 12:04:30;;;;;;;5.43;2.20;;;13.80;1.00;;;;;;5072778;28;20172;-85
2021/03/28 12:07:22;;;;;;;8.40;2.40;;;13.80;1.00;;;;;;5072508;28;20196;-81
2021/03/28 12:09:55;;;;;;;9.60;3.33;;;13.80;1.00;;;;;;5054516;28;20705;-80
2021/03/28 12:12:28;;;;;;;9.00;2.03;;;13.90;1.00;;;;;;5072610;28;20204;-86
2021/03/28 12:14:54;;;;;;;8.67;2.60;;;13.80;1.00;;;;;;5072405;28;20164;-80
2021/03/28 12:17:28;;;;;;;7.83;2.50;;;13.70;1.00;;;;;;5071860;28;20176;-84
2021/03/28 12:20:06;;;;;;;8.97;2.37;;;13.60;1.00;;;;;;5058107;28;20179;-80
2021/03/28 12:22:50;;;;;;;10.07;2.77;;;13.50;1.00;;;;;;5076240;28;20184;-84
2021/03/28 12:25:16;;;;;;;8.87;2.60;;;13.50;1.00;;;;;;5058581;28;20168;-84
2021/03/28 12:27:45;;;;;;;8.27;2.70;;;13.60;1.00;;;;;;5076168;28;20180;-80
2021/03/28 12:30:38;;;;;;;9.73;2.47;;;13.60;1.00;;;;;;5076354;28;20168;-82
2021/03/28 12:33:17;;;;;;;7.30;2.80;;;13.70;1.00;;;;;;5075874;28;20725;-84
2021/03/28 12:36:03;;;;;;;9.20;2.80;;;14.00;1.00;;;;;;5057961;28;20644;-83
2021/03/28 12:38:29;;;;;;;6.90;2.67;;;13.90;1.00;;;;;;5058125;28;20168;-87
2021/03/28 12:41:13;;;;;;;11.67;2.83;;;13.90;1.00;;;;;;5076169;28;20530;-84
2021/03/28 12:43:55;;;;;;;6.33;2.50;;;13.90;1.00;;;;;;5075809;28;20184;-83
2021/03/28 12:46:27;;;;;;;6.40;2.37;;;14.10;1.00;;;;;;5075529;28;20251;-82
2021/03/28 12:49:33;;;;;;;5.80;2.50;;;14.00;1.00;;;;;;5076524;28;20251;-79
2021/03/28 12:52:18;;;;;;;6.87;2.73;;;14.00;1.00;;;;;;5021211;28;20216;-82
2021/03/28 12:54:49;;;;;;;9.27;3.00;;;14.00;1.00;;;;;;5075587;28;20182;-83
2021/03/28 12:57:33;;;;;;;7.60;2.60;;;14.20;1.00;;;;;;5075019;28;20195;-79
2021/03/28 13:00:03;;;;;;;9.33;2.77;;;14.40;1.00;;;;;;5077488;28;20173;-81
2021/03/28 13:02:32;;;;;;;8.43;2.70;;;14.40;1.00;;;;;;5075619;28;20177;-86
2021/03/28 13:05:32;;;;;;;8.30;2.50;;;14.30;1.00;;;;;;5075649;28;20238;-84
2021/03/28 13:08:10;;;;;;;11.03;2.90;;;14.50;1.00;;;;;;5057697;28;20230;-85
2021/03/28 13:10:39;;;;;;;6.60;2.50;;;14.60;1.00;;;;;;5075518;28;20268;-87
2021/03/28 13:13:15;;;;;;;5.97;2.20;;;14.70;1.00;;;;;;5075011;28;20273;-80
2021/03/28 13:15:47;;;;;;;7.67;2.97;;;14.60;1.00;;;;;;5075269;28;20164;-85
2021/03/28 13:18:18;;;;;;;8.80;2.60;;;14.40;1.00;;;;;;5074580;28;20601;-83
2021/03/28 13:20:55;;;;;;;9.40;2.37;;;14.30;1.00;;;;;;5075125;28;20190;-86
2021/03/28 13:23:53;;;;;;;5.57;2.57;;;14.30;1.00;;;;;;5074971;28;20171;-79
2021/03/28 13:26:36;;;;;;;12.53;3.20;;;14.40;1.00;;;;;;5055580;28;20238;-81
2021/03/28 13:29:16;;;;;;;5.80;2.77;;;14.40;1.00;;;;;;5056974;28;20188;-81
2021/03/28 13:32:00;;;;;;;5.57;2.53;;;14.50;1.00;;;;;;5074939;28;20222;-84
2021/03/28 13:34:47;;;;;;;6.87;2.53;;;14.40;1.00;;;;;;5075513;28;20663;-85
2021/03/28 13:37:31;;;;;;;8.73;2.03;;;14.10;1.00;;;;;;5057001;28;20168;-85
2021/03/28 13:40:12;;;;;;;6.73;2.53;;;14.20;1.00;;;;;;5075176;28;20217;-81
2021/03/28 13:42:49;;;;;;;5.90;2.40;;;14.40;1.00;;;;;;5074682;28;20785;-84
2021/03/28 13:45:21;;;;;;;5.77;2.33;;;14.60;1.00;;;;;;5074794;28;20523;-85
2021/03/28 13:47:48;;;;;;;7.20;2.23;;;14.70;1.00;;;;;;5056697;28;20174;-83
2021/03/28 13:50:45;;;;;;;7.33;2.47;;;14.60;1.00;;;;;;5075168;28;20184;-84
2021/03/28 13:53:19;;;;;;;7.70;2.87;;;14.50;1.00;;;;;;5058281;28;20640;-82
2021/03/28 13:56:05;;;;;;;8.30;2.43;;;14.70;1.00;;;;;;5075126;28;20187;-84
2021/03/28 13:58:37;;;;;;;8.93;2.77;;;14.90;1.00;;;;;;5074919;28;20169;-83
2021/03/28 14:01:20;;;;;;;7.00;2.13;;;14.80;1.00;;;;;;5057422;28;20647;-85
2021/03/28 14:03:48;;;;;;;8.37;2.50;;;14.90;1.00;;;;;;5075258;28;20160;-83
2021/03/28 14:06:25;;;;;;;7.60;2.27;;;14.90;1.00;;;;;;5075768;28;20523;-80
2021/03/28 14:09:07;;;;;;;8.20;2.60;;;15.10;1.00;;;;;;5074704;28;20248;-86
2021/03/28 14:11:47;;;;;;;10.90;2.93;;;15.30;1.00;;;;;;5056803;28;20173;-83
2021/03/28 14:14:18;;;;;;;9.00;2.87;;;15.50;1.00;;;;;;5074073;28;20179;-86
2021/03/28 14:16:47;;;;;;;9.93;3.00;;;15.30;1.00;;;;;;5074567;28;20169;-83
2021/03/28 14:19:35;;;;;;;9.70;2.47;;;15.20;1.00;;;;;;5074341;28;20173;-84
2021/03/28 14:22:30;;;;;;;10.10;2.50;;;15.30;1.00;;;;;;5074199;28;20237;-85
2021/03/28 14:24:59;;;;;;;7.87;2.37;;;15.20;1.00;;;;;;5055945;28;20538;-80
2021/03/28 14:27:28;;;;;;;6.97;2.50;;;15.10;1.00;;;;;;5073914;28;20186;-82
2021/03/28 14:30:01;;;;;;;11.00;2.60;;;15.10;1.00;;;;;;5056614;28;20222;-86